Time;durP1;ratioP1;P1;durP2;ratioP2;P2;SDS_P1;SDS_P2;PMS_P1;PMS_P2;Temp;Humidity;BMP_temperature;BMP_pressure;BME280_temperature;BME280_humidity;BME280_pressure;Samples;Min_cycle;Max_cycle;Signal;HPM_P1;HPM_P2
2021/11/06 00:02:13;;;;;;;3.42;1.52;;;;;;;8.87;87.07;98398.84;1708582;83;21127;-77
2021/11/06 00:04:39;;;;;;;1.92;1.10;;;;;;;8.76;86.48;98400.79;1707349;83;21032;-77
2021/11/06 00:07:06;;;;;;;3.83;1.12;;;;;;;8.72;87.49;98401.27;1745643;82;21012;-78
2021/11/06 00:09:32;;;;;;;2.58;1.15;;;;;;;8.69;87.42;98414.08;1744945;82;21024;-77
2021/11/06 00:11:59;;;;;;;1.75;1.00;;;;;;;8.65;87.33;98408.87;1747994;82;21394;-77
2021/11/06 00:14:25;;;;;;;3.52;1.00;;;;;;;8.63;86.37;98420.78;1748097;82;21047;-78
2021/11/06 00:16:53;;;;;;;2.95;1.02;;;;;;;8.63;85.96;98423.89;1745010;82;21552;-78
2021/11/06 00:19:20;;;;;;;2.70;1.02;;;;;;;8.62;86.04;98416.40;1751423;82;21482;-77
2021/11/06 00:21:47;;;;;;;4.10;0.90;;;;;;;8.62;86.18;98419.48;1751162;82;20982;-77
2021/11/06 00:24:13;;;;;;;1.77;0.70;;;;;;;8.62;85.88;98421.68;1747446;82;21123;-77
2021/11/06 00:26:41;;;;;;;3.55;1.10;;;;;;;8.61;83.37;98430.95;1744533;82;20984;-77
2021/11/06 00:29:08;;;;;;;4.80;0.82;;;;;;;8.64;84.57;98434.41;1733103;82;21072;-77
2021/11/06 00:31:34;;;;;;;2.37;0.70;;;;;;;8.64;84.72;98436.20;1736043;82;21498;-77
2021/11/06 00:34:01;;;;;;;5.08;1.20;;;;;;;8.63;84.05;98435.31;1734701;82;20982;-78
2021/11/06 00:36:27;;;;;;;1.60;0.85;;;;;;;8.69;85.21;98440.97;1730035;82;21108;-78
2021/11/06 00:38:54;;;;;;;1.20;0.88;;;;;;;8.69;85.71;98437.00;1729964;82;21017;-78
2021/11/06 00:41:20;;;;;;;1.35;0.70;;;;;;;8.68;86.19;98433.47;1744128;82;21020;-78
2021/11/06 00:43:46;;;;;;;3.22;0.93;;;;;;;8.64;87.45;98430.45;1748887;82;21431;-78
2021/11/06 00:46:13;;;;;;;3.17;1.05;;;;;;;8.65;87.37;98423.41;1731928;82;21085;-78
2021/11/06 00:48:39;;;;;;;1.87;0.90;;;;;;;8.64;87.91;98432.23;1747243;82;21451;-78
2021/11/06 00:51:07;;;;;;;2.52;1.45;;;;;;;8.63;87.62;98426.53;1741645;82;21438;-78
2021/11/06 00:53:33;;;;;;;1.60;0.95;;;;;;;8.65;87.32;98435.30;1743870;81;20977;-77
2021/11/06 00:56:00;;;;;;;3.40;1.07;;;;;;;8.64;86.36;98437.05;1735695;82;21029;-77
2021/11/06 00:58:26;;;;;;;4.62;0.90;;;;;;;8.63;86.13;98443.70;1748835;81;20981;-77
2021/11/06 01:00:53;;;;;;;2.98;1.07;;;;;;;8.66;86.66;98443.20;1734622;83;21447;-78
2021/11/06 01:03:19;;;;;;;4.85;1.40;;;;;;;8.67;87.25;98442.73;1742354;81;21041;-78
2021/11/06 01:05:46;;;;;;;2.00;1.40;;;;;;;8.64;87.46;98448.94;1734616;82;21090;-77
2021/11/06 01:08:13;;;;;;;2.45;1.10;;;;;;;8.63;87.99;98455.59;1746089;81;21462;-77
2021/11/06 01:10:40;;;;;;;5.17;2.35;;;;;;;8.61;88.05;98460.89;1755778;81;21051;-78
2021/11/06 01:13:07;;;;;;;2.87;1.85;;;;;;;8.57;87.89;98475.04;1734386;82;21017;-77
2021/11/06 01:15:33;;;;;;;2.10;1.40;;;;;;;8.51;88.03;98477.73;1734543;82;21376;-77
2021/11/06 01:18:00;;;;;;;2.10;1.20;;;;;;;8.47;88.19;98478.67;1752742;81;21032;-78
2021/11/06 01:20:26;;;;;;;3.37;1.35;;;;;;;8.43;88.08;98472.09;1741457;81;20997;-77
2021/11/06 01:22:54;;;;;;;1.75;0.90;;;;;;;8.42;88.14;98461.11;1752068;82;20984;-77
2021/11/06 01:25:20;;;;;;;2.02;1.10;;;;;;;8.40;88.00;98469.52;1753897;81;21000;-77
2021/11/06 01:27:48;;;;;;;3.58;0.90;;;;;;;8.35;87.68;98469.13;1754202;82;21076;-77
2021/11/06 01:30:17;;;;;;;2.05;0.90;;;;;;;8.34;87.83;98477.48;1742658;81;21048;-77
2021/11/06 01:32:45;;;;;;;2.90;1.25;;;;;;;8.32;87.91;98470.91;1741701;81;21012;-77
2021/11/06 01:35:14;;;;;;;5.22;1.37;;;;;;;8.29;87.99;98472.28;1752490;81;20973;-78
2021/11/06 01:37:40;;;;;;;4.83;1.22;;;;;;;8.24;89.16;98485.99;1759668;81;21032;-78
2021/11/06 01:40:11;;;;;;;2.20;1.12;;;;;;;8.21;88.35;98486.48;1758847;81;20992;-78
2021/11/06 01:42:41;;;;;;;2.25;1.30;;;;;;;8.19;88.40;98483.86;1728222;82;21032;-78
2021/11/06 01:45:10;;;;;;;4.03;1.20;;;;;;;8.19;88.32;98475.94;1749478;82;21212;-78
2021/11/06 01:47:36;;;;;;;3.40;1.55;;;;;;;8.15;88.84;98474.22;1717077;82;22291;-78
2021/11/06 01:50:04;;;;;;;3.25;1.12;;;;;;;8.13;88.80;98482.16;1751232;82;21008;-78
2021/11/06 01:52:30;;;;;;;3.45;1.27;;;;;;;8.12;88.95;98486.13;1751801;82;21506;-77
2021/11/06 01:54:57;;;;;;;3.83;1.32;;;;;;;8.12;88.70;98479.09;1735007;82;20975;-77
2021/11/06 01:57:24;;;;;;;3.95;0.93;;;;;;;8.13;88.71;98481.27;1751818;82;22189;-77
2021/11/06 01:59:52;;;;;;;2.87;1.25;;;;;;;8.14;88.52;98490.49;1751501;82;21013;-77
2021/11/06 02:02:19;;;;;;;4.37;1.20;;;;;;;8.15;88.54;98490.91;1746561;82;21024;-77
2021/11/06 02:04:46;;;;;;;1.52;0.68;;;;;;;8.16;88.20;98486.52;1751895;82;21100;-77
2021/11/06 02:07:13;;;;;;;2.05;1.00;;;;;;;8.17;87.35;98492.22;1749070;82;20981;-77
2021/11/06 02:09:39;;;;;;;3.27;1.20;;;;;;;8.18;85.98;98487.39;1746529;82;20985;-77
2021/11/06 02:12:09;;;;;;;4.15;1.10;;;;;;;8.21;87.24;98474.14;1747182;82;20989;-77
2021/11/06 02:14:37;;;;;;;2.05;0.82;;;;;;;8.22;87.49;98478.52;1742991;82;21036;-77
2021/11/06 02:17:04;;;;;;;3.00;1.05;;;;;;;8.23;87.42;98483.36;1732958;82;21004;-78
2021/11/06 02:19:32;;;;;;;3.08;1.22;;;;;;;8.23;87.31;98491.28;1722106;83;20968;-78
2021/11/06 02:22:00;;;;;;;2.27;1.35;;;;;;;8.21;87.58;98504.50;1738444;82;21044;-78
2021/11/06 02:24:28;;;;;;;3.55;1.40;;;;;;;8.19;87.60;98500.55;1747772;82;20998;-78
2021/11/06 02:26:56;;;;;;;5.83;1.22;;;;;;;8.21;87.80;98507.14;1751839;82;21022;-78
2021/11/06 02:29:22;;;;;;;3.30;1.12;;;;;;;8.22;88.31;98504.92;1751638;82;21002;-78
2021/11/06 02:31:49;;;;;;;3.42;1.60;;;;;;;8.25;88.23;98498.73;1750012;82;20994;-77
2021/11/06 02:34:16;;;;;;;2.25;1.40;;;;;;;8.28;88.67;98498.27;1751978;82;21008;-78
2021/11/06 02:36:43;;;;;;;4.45;1.25;;;;;;;8.35;88.63;98496.87;1751744;82;21513;-77
2021/11/06 02:39:09;;;;;;;5.50;1.37;;;;;;;8.35;88.67;98514.89;1743526;82;21021;-78
2021/11/06 02:41:36;;;;;;;2.10;1.17;;;;;;;8.41;88.81;98512.20;1745497;82;21138;-77
2021/11/06 02:44:13;;;;;;;2.02;1.22;;;;;;;8.48;89.02;98518.71;1751762;82;21025;-78
2021/11/06 02:46:41;;;;;;;3.42;1.10;;;;;;;8.51;89.60;98523.50;1748559;82;21056;-78
2021/11/06 02:49:10;;;;;;;2.08;1.15;;;;;;;8.57;89.22;98515.98;1740199;82;21363;-78
2021/11/06 02:51:36;;;;;;;2.87;1.37;;;;;;;8.59;89.75;98510.22;1748461;82;21032;-78
2021/11/06 02:54:04;;;;;;;4.58;1.15;;;;;;;8.65;89.84;98501.35;1745636;82;21154;-78
2021/11/06 02:56:31;;;;;;;3.47;1.35;;;;;;;8.72;89.92;98504.32;1737616;82;21013;-78
2021/11/06 02:58:57;;;;;;;5.17;1.30;;;;;;;8.78;89.83;98517.47;1737881;82;21049;-77
2021/11/06 03:01:26;;;;;;;3.60;1.22;;;;;;;8.78;89.70;98526.72;1744137;82;21035;-77
2021/11/06 03:03:52;;;;;;;1.60;1.10;;;;;;;8.79;89.57;98533.75;1718956;83;20996;-78
2021/11/06 03:06:19;;;;;;;3.27;1.10;;;;;;;8.76;88.71;98532.45;1731398;81;21108;-78
2021/11/06 03:08:46;;;;;;;1.47;1.10;;;;;;;8.76;89.09;98533.78;1748765;82;20993;-77
2021/11/06 03:11:13;;;;;;;2.40;1.00;;;;;;;8.76;88.48;98533.78;1748679;82;21020;-77
2021/11/06 03:13:40;;;;;;;1.90;1.20;;;;;;;8.75;88.62;98532.04;1748562;82;21000;-78
2021/11/06 03:16:13;;;;;;;3.27;1.25;;;;;;;8.73;88.71;98532.52;1748604;82;21017;-77
2021/11/06 03:18:40;;;;;;;2.65;1.40;;;;;;;8.68;88.51;98539.17;1748324;82;21096;-78
2021/11/06 03:21:07;;;;;;;3.80;1.40;;;;;;;8.63;88.85;98530.90;1743309;81;21001;-78
2021/11/06 03:23:33;;;;;;;2.95;1.80;;;;;;;8.61;88.63;98532.67;1748823;82;21029;-78
2021/11/06 03:26:01;;;;;;;2.75;1.47;;;;;;;8.56;89.12;98536.23;1748276;81;20995;-78
2021/11/06 03:28:28;;;;;;;2.50;1.50;;;;;;;8.56;89.31;98544.63;1747927;82;21716;-78
2021/11/06 03:30:57;;;;;;;15.10;2.87;;;;;;;8.53;89.04;98556.11;1739245;82;20961;-78
2021/11/06 03:33:25;;;;;;;5.92;2.10;;;;;;;8.48;88.92;98545.13;1731537;83;21009;-78
2021/11/06 03:35:51;;;;;;;4.92;1.90;;;;;;;8.42;89.27;98542.98;1731589;82;21458;-78
2021/11/06 03:38:18;;;;;;;4.10;1.80;;;;;;;8.40;89.14;98546.55;1735243;82;21027;-78
2021/11/06 03:40:44;;;;;;;4.10;1.90;;;;;;;8.36;89.28;98544.83;1748341;82;21001;-78
2021/11/06 03:43:10;;;;;;;2.50;1.57;;;;;;;8.36;89.36;98543.50;1748516;82;21048;-78
2021/11/06 03:45:37;;;;;;;3.35;1.35;;;;;;;8.34;89.26;98558.51;1744220;82;20963;-78
2021/11/06 03:48:05;;;;;;;3.22;1.50;;;;;;;8.32;89.61;98563.34;1747664;82;20989;-78
2021/11/06 03:50:31;;;;;;;3.25;1.20;;;;;;;8.31;89.44;98564.70;1742258;82;21095;-78
2021/11/06 03:52:58;;;;;;;2.37;1.45;;;;;;;8.29;89.36;98569.99;1746949;82;21064;-78
2021/11/06 03:55:25;;;;;;;2.25;1.10;;;;;;;8.28;90.36;98580.56;1743181;82;20993;-78
2021/11/06 03:57:52;;;;;;;2.10;1.30;;;;;;;8.25;89.49;98577.52;1748255;82;21003;-78
2021/11/06 04:00:19;;;;;;;3.52;1.07;;;;;;;8.25;89.44;98585.87;1748266;82;21026;-78
2021/11/06 04:02:47;;;;;;;4.83;1.25;;;;;;;8.25;89.36;98585.44;1740032;82;21051;-78
2021/11/06 04:05:14;;;;;;;1.90;1.20;;;;;;;8.26;89.43;98588.50;1748207;82;21012;-78
2021/11/06 04:07:42;;;;;;;2.52;1.52;;;;;;;8.28;89.34;98580.56;1731099;82;20960;-78
2021/11/06 04:10:11;;;;;;;2.90;1.22;;;;;;;8.26;90.96;98581.05;1733226;82;21084;-78
2021/11/06 04:12:39;;;;;;;3.75;1.57;;;;;;;8.25;90.19;98585.87;1740164;82;21039;-82
2021/11/06 04:15:10;;;;;;;3.52;1.95;;;;;;;8.24;90.04;98585.02;1734043;82;21056;-78
2021/11/06 04:17:37;;;;;;;3.12;2.00;;;;;;;8.25;89.81;98604.35;1733477;82;21080;-78
2021/11/06 04:20:06;;;;;;;4.95;2.80;;;;;;;8.24;89.83;98602.61;1748837;82;20989;-77
2021/11/06 04:22:33;;;;;;;11.48;2.30;;;;;;;8.25;89.93;98596.43;1740154;82;21021;-78
2021/11/06 04:25:00;;;;;;;2.60;1.77;;;;;;;8.23;89.63;98591.63;1740580;82;21365;-78
2021/11/06 04:27:26;;;;;;;3.87;1.85;;;;;;;8.20;90.34;98597.81;1731695;83;20976;-78
2021/11/06 04:29:52;;;;;;;6.35;2.70;;;;;;;8.19;90.12;98593.43;1732854;82;20999;-78
2021/11/06 04:32:19;;;;;;;4.75;2.72;;;;;;;8.19;89.87;98589.00;1748869;82;21085;-79
2021/11/06 04:34:45;;;;;;;4.53;2.62;;;;;;;8.19;89.69;98597.39;1748858;82;20996;-78
2021/11/06 04:37:12;;;;;;;3.02;2.15;;;;;;;8.17;91.25;98605.75;1742669;82;21009;-78
2021/11/06 04:39:38;;;;;;;7.65;1.75;;;;;;;8.16;90.88;98604.01;1748001;82;21013;-78
2021/11/06 04:42:06;;;;;;;2.52;1.30;;;;;;;8.18;90.44;98600.47;1748591;82;21156;-78
2021/11/06 04:44:32;;;;;;;5.35;1.65;;;;;;;8.20;90.16;98600.45;1748659;82;21060;-77
2021/11/06 04:46:59;;;;;;;4.00;1.65;;;;;;;8.23;90.12;98598.23;1754349;82;21056;-78
2021/11/06 04:49:25;;;;;;;4.65;1.90;;;;;;;8.24;90.04;98600.86;1754160;81;21450;-78
2021/11/06 04:51:52;;;;;;;5.30;1.60;;;;;;;8.25;90.28;98605.67;1754059;82;20984;-78
2021/11/06 04:54:18;;;;;;;6.40;1.87;;;;;;;8.29;90.37;98599.47;1750796;82;20966;-78
2021/11/06 04:56:45;;;;;;;4.17;2.45;;;;;;;8.32;90.46;98610.02;1742521;81;20963;-78
2021/11/06 04:59:11;;;;;;;2.60;1.60;;;;;;;8.38;90.75;98633.72;1734624;83;21018;-78
2021/11/06 05:01:38;;;;;;;11.35;2.02;;;;;;;8.41;90.77;98624.88;1745088;81;20985;-78
2021/11/06 05:04:04;;;;;;;4.55;1.90;;;;;;;8.41;90.72;98618.28;1751641;82;21445;-78
2021/11/06 05:06:31;;;;;;;4.75;1.70;;;;;;;8.42;90.93;98612.98;1744577;82;21064;-78
2021/11/06 05:08:57;;;;;;;4.72;1.95;;;;;;;8.47;91.13;98608.11;1740693;82;20954;-78
2021/11/06 05:11:24;;;;;;;3.72;1.80;;;;;;;8.51;91.38;98612.00;1735642;82;21043;-78
2021/11/06 05:13:50;;;;;;;5.25;1.60;;;;;;;8.56;91.53;98591.72;1732004;82;21096;-78
2021/11/06 05:16:17;;;;;;;4.40;2.20;;;;;;;8.60;91.30;98595.23;1746708;81;21387;-78
2021/11/06 05:18:45;;;;;;;4.95;2.37;;;;;;;8.59;91.01;98615.91;1759502;81;21001;-78
2021/11/06 05:21:11;;;;;;;5.90;3.45;;;;;;;8.56;90.98;98619.92;1759759;81;21286;-78
2021/11/06 05:23:38;;;;;;;6.67;2.20;;;;;;;8.59;91.52;98622.52;1759157;81;21534;-78
2021/11/06 05:26:05;;;;;;;4.37;1.95;;;;;;;8.64;91.25;98619.37;1754098;81;21463;-79
2021/11/06 05:28:31;;;;;;;4.87;2.52;;;;;;;8.68;91.17;98629.48;1747524;81;21020;-79
2021/11/06 05:30:58;;;;;;;4.17;2.42;;;;;;;8.69;91.14;98655.86;1758078;81;21063;-79
2021/11/06 05:33:24;;;;;;;8.23;3.30;;;;;;;8.67;90.98;98651.05;1729629;83;21477;-79
2021/11/06 05:35:51;;;;;;;4.95;2.08;;;;;;;8.67;90.56;98656.77;1731692;81;21047;-79
2021/11/06 05:38:17;;;;;;;6.08;2.95;;;;;;;8.64;90.38;98660.33;1759715;81;21037;-78
2021/11/06 05:40:44;;;;;;;5.45;2.30;;;;;;;8.61;90.08;98666.09;1747140;81;20970;-78
2021/11/06 05:43:10;;;;;;;4.62;1.95;;;;;;;8.55;90.04;98669.67;1734669;83;21069;-78
2021/11/06 05:45:37;;;;;;;4.92;1.85;;;;;;;8.52;89.84;98670.58;1741262;81;21489;-79
2021/11/06 05:48:04;;;;;;;6.55;2.15;;;;;;;8.48;89.78;98679.42;1739027;82;20977;-78
2021/11/06 05:50:30;;;;;;;6.00;2.12;;;;;;;8.48;89.71;98681.17;1743891;82;21023;-79
2021/11/06 05:52:57;;;;;;;8.28;4.05;;;;;;;8.45;89.68;98680.76;1736997;82;21035;-79
2021/11/06 05:55:24;;;;;;;8.08;3.70;;;;;;;8.45;89.50;98677.69;1740423;82;21107;-78
2021/11/06 05:57:50;;;;;;;6.50;2.60;;;;;;;8.43;89.43;98675.48;1728303;82;21505;-78
2021/11/06 06:00:20;;;;;;;6.08;2.92;;;;;;;8.42;89.65;98672.42;1738295;82;21063;-78
2021/11/06 06:02:48;;;;;;;7.10;2.52;;;;;;;8.43;89.43;98671.98;1739229;82;20993;-78
2021/11/06 06:05:15;;;;;;;4.72;2.85;;;;;;;8.41;89.54;98675.95;1739200;82;21068;-78
2021/11/06 06:07:42;;;;;;;5.80;2.20;;;;;;;8.41;89.76;98682.56;1739053;82;20988;-77
2021/11/06 06:10:12;;;;;;;4.80;2.55;;;;;;;8.41;89.63;98678.59;1739375;82;21075;-78
2021/11/06 06:12:40;;;;;;;5.20;2.62;;;;;;;8.39;89.39;98686.11;1753443;81;21064;-78
2021/11/06 06:15:08;;;;;;;4.55;2.17;;;;;;;8.39;89.31;98699.31;1753476;82;21024;-78
2021/11/06 06:17:37;;;;;;;9.25;2.40;;;;;;;8.38;89.25;98693.61;1743491;81;21387;-78
2021/11/06 06:20:07;;;;;;;4.45;2.40;;;;;;;8.37;89.46;98691.83;1750818;82;21410;-78
2021/11/06 06:22:33;;;;;;;4.35;2.45;;;;;;;8.39;89.68;98696.67;1749272;81;21009;-77
2021/11/06 06:25:00;;;;;;;5.05;2.20;;;;;;;8.42;89.70;98705.87;1747080;81;20973;-78
2021/11/06 06:27:28;;;;;;;6.42;2.55;;;;;;;8.40;89.62;98711.63;1739082;82;20936;-78
2021/11/06 06:29:55;;;;;;;6.08;2.60;;;;;;;8.37;89.31;98706.36;1754030;82;20954;-78
2021/11/06 06:32:23;;;;;;;4.20;2.22;;;;;;;8.32;89.72;98717.83;1757210;80;21037;-78
2021/11/06 06:34:50;;;;;;;4.65;2.35;;;;;;;8.29;90.39;98720.52;1756810;80;21144;-77
2021/11/06 06:37:16;;;;;;;4.05;2.35;;;;;;;8.24;90.01;98729.36;1755991;80;20996;-78
2021/11/06 06:39:43;;;;;;;5.70;1.85;;;;;;;8.16;90.18;98726.36;1756757;80;21020;-78
2021/11/06 06:42:09;;;;;;;3.22;1.87;;;;;;;8.11;89.87;98729.48;1743720;80;21245;-78
2021/11/06 06:44:36;;;;;;;6.10;2.30;;;;;;;8.08;89.98;98728.17;1753653;80;20969;-78
2021/11/06 06:47:03;;;;;;;3.83;1.45;;;;;;;8.06;89.91;98734.77;1760944;80;21048;-78
2021/11/06 06:49:29;;;;;;;3.33;1.90;;;;;;;8.05;90.10;98733.03;1762826;80;20996;-78
2021/11/06 06:51:55;;;;;;;7.08;2.50;;;;;;;8.05;90.11;98730.82;1762298;79;21024;-78
2021/11/06 06:54:23;;;;;;;5.67;2.60;;;;;;;8.04;89.97;98736.99;1761004;80;20996;-77
2021/11/06 06:56:51;;;;;;;4.58;2.77;;;;;;;8.02;89.85;98728.22;1759951;81;20965;-78
2021/11/06 06:59:17;;;;;;;7.30;2.95;;;;;;;7.99;89.78;98732.20;1760086;81;21382;-77
2021/11/06 07:01:46;;;;;;;4.40;2.60;;;;;;;7.96;89.71;98726.92;1732287;81;20997;-79
2021/11/06 07:04:14;;;;;;;5.70;3.20;;;;;;;7.95;89.67;98737.95;1760124;81;20981;-77
2021/11/06 07:06:41;;;;;;;4.83;2.33;;;;;;;7.92;89.69;98738.84;1759845;81;21141;-77
2021/11/06 07:09:07;;;;;;;5.17;2.47;;;;;;;7.92;90.44;98737.52;1760154;81;21446;-77
2021/11/06 07:11:34;;;;;;;5.37;2.52;;;;;;;7.93;90.42;98741.02;1759741;81;21049;-77
2021/11/06 07:14:01;;;;;;;5.45;2.45;;;;;;;7.95;90.40;98740.59;1740889;81;20981;-77
2021/11/06 07:16:27;;;;;;;4.30;2.05;;;;;;;7.97;90.32;98739.27;1750885;82;21012;-77
2021/11/06 07:18:54;;;;;;;5.33;1.80;;;;;;;8.02;90.70;98739.64;1754303;82;20988;-77
2021/11/06 07:21:20;;;;;;;2.35;1.50;;;;;;;8.09;90.46;98746.22;1748953;82;21123;-77
2021/11/06 07:23:47;;;;;;;4.97;1.60;;;;;;;8.13;90.07;98743.53;1755999;81;20974;-77
2021/11/06 07:26:13;;;;;;;3.62;1.50;;;;;;;8.20;90.40;98753.61;1753606;81;20980;-77
2021/11/06 07:28:40;;;;;;;3.85;1.80;;;;;;;8.27;89.88;98757.94;1759602;81;20989;-77
2021/11/06 07:31:06;;;;;;;5.58;3.00;;;;;;;8.35;90.24;98750.41;1754910;81;21008;-77
2021/11/06 07:33:32;;;;;;;5.50;2.30;;;;;;;8.43;90.41;98757.84;1747109;82;21478;-77
2021/11/06 07:35:59;;;;;;;10.28;3.27;;;;;;;8.45;90.19;98755.61;1738905;82;21024;-77
2021/11/06 07:38:25;;;;;;;11.05;5.08;;;;;;;8.50;88.62;98757.31;1754164;82;20989;-77
2021/11/06 07:40:52;;;;;;;12.00;5.08;;;;;;;8.50;88.52;98761.27;1754300;82;21052;-78
2021/11/06 07:43:19;;;;;;;9.10;4.55;;;;;;;8.47;88.34;98761.32;1753640;82;21021;-78
2021/11/06 07:45:46;;;;;;;7.37;4.05;;;;;;;8.42;87.87;98770.16;1753905;81;21473;-78
2021/11/06 07:48:12;;;;;;;26.07;14.43;;;;;;;8.48;88.47;98759.99;1753918;81;21008;-78
2021/11/06 07:50:39;;;;;;;10.43;6.08;;;;;;;8.52;88.85;98755.55;1754230;81;21040;-78
2021/11/06 07:53:07;;;;;;;4.40;2.50;;;;;;;8.56;88.87;98758.63;1754005;81;21047;-77
2021/11/06 07:55:34;;;;;;;5.20;2.37;;;;;;;8.57;89.03;98758.63;1734951;82;21025;-78
2021/11/06 07:58:01;;;;;;;3.75;2.15;;;;;;;8.60;88.84;98763.44;1735673;82;21068;-78
2021/11/06 08:00:27;;;;;;;7.83;2.00;;;;;;;8.60;88.87;98751.55;1743235;81;21441;-78
2021/11/06 08:02:54;;;;;;;4.92;2.60;;;;;;;8.58;88.93;98755.52;1741283;81;21001;-77
2021/11/06 08:05:20;;;;;;;6.10;2.40;;;;;;;8.60;88.97;98763.00;1753212;82;21104;-77
2021/11/06 08:07:47;;;;;;;6.08;2.98;;;;;;;8.58;89.00;98751.13;1754222;82;21410;-78
2021/11/06 08:10:14;;;;;;;5.83;3.45;;;;;;;8.57;88.98;98753.77;1754335;81;20949;-77
2021/11/06 08:12:42;;;;;;;5.58;3.33;;;;;;;8.53;88.83;98751.61;1754184;81;21087;-78
2021/11/06 08:15:13;;;;;;;5.10;3.80;;;;;;;8.51;89.29;98744.09;1752710;81;21028;-78
2021/11/06 08:17:40;;;;;;;11.18;3.80;;;;;;;8.51;89.37;98743.23;1717457;83;21016;-78
2021/11/06 08:20:08;;;;;;;5.17;3.75;;;;;;;8.53;88.87;98755.58;1711435;83;20952;-78
2021/11/06 08:22:36;;;;;;;8.70;3.80;;;;;;;8.56;89.63;98763.45;1724877;82;21533;-79
2021/11/06 08:25:06;;;;;;;6.10;3.35;;;;;;;8.64;89.08;98759.41;1747358;82;21407;-79
2021/11/06 08:27:34;;;;;;;8.10;4.45;;;;;;;8.72;88.97;98755.38;1753745;82;21418;-79
2021/11/06 08:30:01;;;;;;;13.65;8.03;;;;;;;8.81;88.84;98752.64;1734475;82;21047;-79
2021/11/06 08:32:27;;;;;;;8.30;5.28;;;;;;;8.91;88.66;98741.55;1737960;82;21000;-81
2021/11/06 08:34:54;;;;;;;6.60;3.98;;;;;;;9.04;88.71;98732.14;1753870;81;21090;-80
2021/11/06 08:37:20;;;;;;;7.17;2.75;;;;;;;9.17;88.50;98733.75;1754237;81;21051;-80
2021/11/06 08:39:47;;;;;;;2.98;1.90;;;;;;;9.32;86.78;98738.00;1754221;82;21061;-80
2021/11/06 08:42:13;;;;;;;3.45;1.70;;;;;;;9.47;86.45;98748.81;1754097;82;21024;-80
2021/11/06 08:44:40;;;;;;;2.95;1.82;;;;;;;9.61;86.31;98751.30;1754289;81;20997;-80
2021/11/06 08:47:06;;;;;;;2.33;1.62;;;;;;;9.74;84.19;98757.73;1752249;82;21009;-81
2021/11/06 08:49:33;;;;;;;3.37;1.60;;;;;;;9.86;84.56;98760.66;1740465;82;21032;-80
2021/11/06 08:52:00;;;;;;;1.55;1.30;;;;;;;9.95;76.40;98772.44;1736331;82;21095;-80
2021/11/06 08:54:27;;;;;;;4.40;1.57;;;;;;;10.08;81.06;98788.16;1746484;82;21077;-80
2021/11/06 08:56:54;;;;;;;4.17;2.08;;;;;;;10.21;82.16;98781.76;1753975;82;20972;-80
2021/11/06 08:59:22;;;;;;;4.45;1.85;;;;;;;10.35;81.71;98787.30;1745611;82;21020;-80
2021/11/06 09:01:53;;;;;;;4.17;2.10;;;;;;;10.51;80.14;98785.31;1753510;82;20985;-80
2021/11/06 09:04:21;;;;;;;4.08;2.25;;;;;;;10.67;78.23;98786.80;1753807;82;21059;-80
2021/11/06 09:06:49;;;;;;;6.03;3.00;;;;;;;10.82;80.13;98786.99;1746226;82;21450;-80
2021/11/06 09:09:16;;;;;;;6.83;3.30;;;;;;;10.96;78.71;98793.36;1742149;81;21065;-81
2021/11/06 09:11:46;;;;;;;6.00;3.52;;;;;;;11.04;78.05;98798.52;1741283;82;20997;-81
2021/11/06 09:14:14;;;;;;;5.85;4.05;;;;;;;11.13;78.40;98796.61;1749356;82;21077;-81
2021/11/06 09:16:42;;;;;;;10.18;4.30;;;;;;;11.24;78.37;98795.09;1741096;81;21057;-81
2021/11/06 09:19:08;;;;;;;5.97;4.00;;;;;;;11.35;77.90;98798.40;1759620;81;21414;-80
2021/11/06 09:21:35;;;;;;;6.67;3.60;;;;;;;11.44;76.38;98790.25;1752981;81;21024;-80
2021/11/06 09:24:03;;;;;;;5.17;3.50;;;;;;;11.54;77.16;98788.73;1739307;82;21439;-80
2021/11/06 09:26:38;;;;;;;5.15;3.98;;;;;;;11.63;76.24;98783.24;1734602;83;21014;-80
2021/11/06 09:29:07;;;;;;;6.75;4.30;;;;;;;11.71;75.92;98781.75;1734582;82;21135;-81
2021/11/06 09:31:35;;;;;;;4.60;3.27;;;;;;;11.82;76.21;98781.05;1747817;82;21049;-81
2021/11/06 09:34:03;;;;;;;5.35;3.30;;;;;;;11.84;72.00;98779.69;1746181;81;21111;-80
2021/11/06 09:36:29;;;;;;;6.92;3.95;;;;;;;11.93;72.00;98772.84;1750960;81;21008;-80
2021/11/06 09:38:57;;;;;;;3.80;3.30;;;;;;;12.01;70.59;98772.67;1745040;81;21032;-81
2021/11/06 09:41:24;;;;;;;5.20;2.98;;;;;;;12.09;72.46;98770.72;1733215;82;20993;-81
2021/11/06 09:43:51;;;;;;;4.83;3.05;;;;;;;12.18;74.03;98778.95;1750939;81;21537;-80
2021/11/06 09:46:18;;;;;;;8.33;3.80;;;;;;;12.20;72.40;98777.12;1747221;81;21384;-79
2021/11/06 09:48:48;;;;;;;5.72;3.58;;;;;;;12.24;70.28;98780.13;1733626;83;21084;-80
2021/11/06 09:51:18;;;;;;;5.08;3.55;;;;;;;12.32;70.89;98775.96;1759395;81;21021;-79
2021/11/06 09:53:49;;;;;;;5.45;3.90;;;;;;;12.30;67.11;98760.96;1734472;82;20991;-81
2021/11/06 09:56:20;;;;;;;5.33;3.83;;;;;;;12.28;63.33;98766.31;1735245;82;21021;-81
2021/11/06 09:58:48;;;;;;;5.28;4.00;;;;;;;12.27;64.41;98769.88;1737376;82;21406;-81
2021/11/06 10:01:16;;;;;;;5.87;3.80;;;;;;;12.38;66.46;98766.50;1749018;82;20973;-80
2021/11/06 10:03:43;;;;;;;6.72;4.60;;;;;;;12.42;65.01;98777.95;1742580;82;21446;-82
2021/11/06 10:06:22;;;;;;;5.42;3.60;;;;;;;12.50;66.34;98785.27;1745260;82;21489;-82
2021/11/06 10:08:52;;;;;;;22.80;15.23;;;;;;;12.58;67.63;98775.77;1743145;82;21417;-82
2021/11/06 10:11:24;;;;;;;6.95;5.03;;;;;;;12.75;68.39;98775.81;1727534;83;20992;-80
2021/11/06 10:14:04;;;;;;;5.00;3.90;;;;;;;12.86;67.54;98774.17;1727325;83;21063;-81
2021/11/06 10:16:55;;;;;;;5.80;3.83;;;;;;;12.90;67.64;98769.20;1735309;82;20964;-83
2021/11/06 10:19:32;;;;;;;5.00;3.65;;;;;;;12.90;65.63;98768.75;1739459;82;21001;-82
2021/11/06 10:22:13;;;;;;;5.72;3.72;;;;;;;12.92;67.53;98766.05;1739302;82;21024;-81
2021/11/06 10:24:53;;;;;;;6.80;3.90;;;;;;;12.98;66.01;98764.55;1702971;84;21123;-81
2021/11/06 10:27:30;;;;;;;6.22;3.50;;;;;;;12.95;63.39;98760.63;1739598;82;21004;-81
2021/11/06 10:30:05;;;;;;;3.92;3.08;;;;;;;13.01;65.25;98759.16;1758240;81;21019;-81
2021/11/06 10:32:43;;;;;;;4.28;2.90;;;;;;;13.20;63.22;98766.61;1755966;81;21055;-80
2021/11/06 10:35:19;;;;;;;4.30;2.87;;;;;;;13.37;64.69;98761.28;1758829;81;20996;-80
2021/11/06 10:37:49;;;;;;;3.20;2.77;;;;;;;13.49;64.35;98764.94;1745909;81;20972;-80
2021/11/06 10:40:20;;;;;;;15.72;12.25;;;;;;;13.75;65.38;98765.09;1704928;83;21088;-80
2021/11/06 10:42:55;;;;;;;7.22;3.00;;;;;;;14.02;62.24;98765.16;1684694;84;21028;-80
2021/11/06 10:45:27;;;;;;;4.28;2.50;;;;;;;14.73;59.35;98763.30;1757513;82;21032;-81
2021/11/06 10:48:06;;;;;;;3.67;2.85;;;;;;;14.90;57.46;98747.62;1752174;82;21033;-80
2021/11/06 10:50:58;;;;;;;5.30;3.00;;;;;;;14.82;60.33;98736.34;1746380;82;20961;-81
2021/11/06 10:53:36;;;;;;;5.45;3.65;;;;;;;14.76;58.57;98728.11;1737287;82;20985;-80
2021/11/06 10:56:08;;;;;;;4.97;3.40;;;;;;;14.87;61.41;98729.04;1731435;82;21063;-80
2021/11/06 10:58:36;;;;;;;21.45;4.87;;;;;;;15.26;56.70;98723.66;1731236;82;20985;-82
2021/11/06 11:01:07;;;;;;;5.17;3.35;;;;;;;16.04;58.45;98721.19;1713039;83;21009;-82
2021/11/06 11:03:38;;;;;;;5.37;3.08;;;;;;;16.78;57.54;98721.25;1711285;84;20960;-83
2021/11/06 11:06:12;;;;;;;3.72;2.92;;;;;;;17.22;57.50;98720.23;1705398;84;21443;-85
2021/11/06 11:08:50;;;;;;;;;;;;;;;17.27;54.74;98715.53;1696342;84;20999;-91
2021/11/06 11:11:19;;;;;;;3.90;3.00;;;;;;;17.36;54.93;98708.03;1679078;85;20109;-86
2021/11/06 11:13:53;;;;;;;7.15;3.02;;;;;;;17.60;53.01;98710.52;1679184;85;21063;-86
2021/11/06 11:16:24;;;;;;;3.92;3.30;;;;;;;18.00;53.35;98710.39;1690635;84;21005;-85
2021/11/06 11:18:55;;;;;;;5.35;3.05;;;;;;;18.12;51.72;98705.81;1708296;84;21483;-90
2021/11/06 11:21:33;;;;;;;4.60;2.77;;;;;;;17.87;50.54;98705.64;1655654;85;21001;-88
2021/11/06 11:24:10;;;;;;;3.40;2.60;;;;;;;17.58;51.14;98702.99;1684061;84;20978;-87
2021/11/06 11:26:51;;;;;;;4.95;3.15;;;;;;;17.09;46.53;98698.50;1707570;84;21116;-86
2021/11/06 11:29:26;;;;;;;5.95;2.87;;;;;;;17.08;48.36;98697.22;1679903;85;21003;-78
2021/11/06 11:31:49;;;;;;;4.05;2.25;;;;;;;17.40;47.42;98684.18;1708885;84;20977;-79
2021/11/06 11:34:17;;;;;;;3.45;2.25;;;;;;;17.46;51.45;98683.88;1709072;84;21470;-78
2021/11/06 11:36:46;;;;;;;3.20;2.47;;;;;;;17.85;51.03;98678.51;1708832;84;21421;-79
2021/11/06 11:39:16;;;;;;;3.08;2.40;;;;;;;17.74;52.78;98671.86;1747565;81;21029;-79
2021/11/06 11:42:11;;;;;;;4.47;3.67;;;;;;;17.47;48.57;98668.66;1753848;82;21052;-79
2021/11/06 11:44:52;;;;;;;6.50;4.28;;;;;;;17.51;52.93;98674.27;1753925;82;20993;-79